createdAt,value
2023-01-27T00:04:37.952Z,24.20
2023-01-27T00:09:30.653Z,21.40
2023-01-27T00:14:24.026Z,24.43
2023-01-27T00:19:19.861Z,23.20
2023-01-27T00:24:31.048Z,27.13
2023-01-27T00:29:23.908Z,24.20
2023-01-27T00:34:19.233Z,24.43
2023-01-27T00:39:12.948Z,25.13
2023-01-27T00:44:06.111Z,22.93
2023-01-27T00:48:58.992Z,24.37
2023-01-27T00:53:53.002Z,24.03
2023-01-27T00:58:45.662Z,23.23
2023-01-27T01:03:38.399Z,21.63
2023-01-27T01:08:31.264Z,21.20
2023-01-27T01:13:25.346Z,28.33
2023-01-27T01:18:17.904Z,21.40
2023-01-27T01:23:11.336Z,21.63
2023-01-27T01:28:04.788Z,21.50
2023-01-27T01:32:59.069Z,22.77
2023-01-27T01:37:51.980Z,20.20
2023-01-27T01:42:51.063Z,19.40
2023-01-27T01:47:43.740Z,21.23
2023-01-27T01:52:38.152Z,19.83
2023-01-27T01:57:32.882Z,20.20
2023-01-27T02:02:27.159Z,22.27
2023-01-27T02:07:22.015Z,23.43
2023-01-27T02:12:18.853Z,23.73
2023-01-27T02:17:13.845Z,24.60
2023-01-27T02:22:08.574Z,23.23
2023-01-27T02:27:02.728Z,22.13
2023-01-27T02:31:55.543Z,21.77
2023-01-27T02:36:49.794Z,21.30
2023-01-27T02:41:43.692Z,20.93
2023-01-27T02:46:38.820Z,20.47
2023-01-27T02:51:33.364Z,20.80
2023-01-27T02:56:26.305Z,20.60
2023-01-27T03:01:21.651Z,20.87
2023-01-27T03:06:15.604Z,21.10
2023-01-27T03:11:09.495Z,18.57
2023-01-27T03:16:19.921Z,21.20
2023-01-27T03:21:12.609Z,20.83
2023-01-27T03:26:08.473Z,18.27
2023-01-27T03:31:03.758Z,20.83
2023-01-27T03:36:26.218Z,19.97
2023-01-27T03:41:38.660Z,21.13
2023-01-27T03:46:32.775Z,20.93
2023-01-27T03:51:25.914Z,21.60
2023-01-27T03:56:20.048Z,20.80
2023-01-27T04:01:17.753Z,21.90
2023-01-27T04:06:28.626Z,22.20
2023-01-27T04:11:38.697Z,22.60
2023-01-27T04:16:32.708Z,23.97
2023-01-27T04:21:26.288Z,23.10
2023-01-27T04:26:18.904Z,21.60
2023-01-27T04:31:11.740Z,23.20
2023-01-27T04:36:06.089Z,23.33
2023-01-27T04:40:58.822Z,22.93
2023-01-27T04:45:51.419Z,22.30
2023-01-27T04:50:44.077Z,23.00
2023-01-27T04:55:38.016Z,22.40
2023-01-27T05:00:30.632Z,23.93
2023-01-27T05:05:23.224Z,20.23
2023-01-27T05:10:15.794Z,22.40
2023-01-27T05:15:10.848Z,22.03
2023-01-27T05:20:04.474Z,22.43
2023-01-27T05:24:57.097Z,22.13
2023-01-27T05:29:49.868Z,21.93
2023-01-27T05:34:43.781Z,21.20
2023-01-27T05:39:36.306Z,23.33
2023-01-27T05:44:28.921Z,22.43
2023-01-27T05:49:21.538Z,22.80
2023-01-27T05:54:15.445Z,22.03
2023-01-27T05:59:08.359Z,23.50
2023-01-27T06:04:01.201Z,20.70
2023-01-27T06:08:54.077Z,22.50
2023-01-27T06:13:48.394Z,21.93
2023-01-27T06:18:41.622Z,20.00
2023-01-27T06:23:34.168Z,21.10
2023-01-27T06:28:29.463Z,19.90
2023-01-27T06:33:23.770Z,22.27
2023-01-27T06:38:16.308Z,22.20
2023-01-27T06:43:11.914Z,18.47
2023-01-27T06:48:04.767Z,18.40
2023-01-27T06:53:01.866Z,20.70
2023-01-27T06:57:54.519Z,20.13
2023-01-27T07:02:47.197Z,19.87
2023-01-27T07:07:40.053Z,20.77
2023-01-27T07:12:37.590Z,19.40
2023-01-27T07:17:30.252Z,20.73
2023-01-27T07:22:22.792Z,22.07
2023-01-27T07:27:15.907Z,21.97
2023-01-27T07:32:09.833Z,21.17
2023-01-27T07:37:02.558Z,20.30
2023-01-27T07:41:55.087Z,20.23
2023-01-27T07:46:47.631Z,21.23
2023-01-27T07:51:41.575Z,19.33
2023-01-27T07:56:36.277Z,18.63
2023-01-27T08:01:28.880Z,14.77
2023-01-27T08:06:21.585Z,15.50
2023-01-27T08:11:16.259Z,13.27
2023-01-27T08:16:11.669Z,15.43
2023-01-27T08:21:06.305Z,13.07
2023-01-27T08:25:59.987Z,11.77
2023-01-27T08:30:54.266Z,12.73
2023-01-27T08:35:47.115Z,7.40
2023-01-27T08:40:40.006Z,11.23
2023-01-27T08:45:32.598Z,10.90
2023-01-27T08:50:26.699Z,11.70
2023-01-27T08:55:19.333Z,13.00
2023-01-27T09:00:13.795Z,12.83
2023-01-27T09:05:07.377Z,11.70
2023-01-27T09:10:13.554Z,12.50
2023-01-27T09:15:08.291Z,13.10
2023-01-27T09:20:00.928Z,10.57
2023-01-27T09:24:53.502Z,10.77
2023-01-27T09:29:47.398Z,12.33
2023-01-27T09:34:40.486Z,13.30
2023-01-27T09:39:34.390Z,12.07
2023-01-27T09:44:38.560Z,9.90
2023-01-27T09:49:47.068Z,7.87
2023-01-27T09:54:44.491Z,8.70
2023-01-27T09:59:44.294Z,7.40
2023-01-27T10:04:53.501Z,8.87
2023-01-27T10:09:53.678Z,6.33
2023-01-27T10:14:49.499Z,10.27
2023-01-27T10:19:50.256Z,9.87
2023-01-27T10:24:50.078Z,9.00
2023-01-27T10:29:45.773Z,10.20
2023-01-27T10:34:40.546Z,10.93
2023-01-27T10:39:39.934Z,9.87
2023-01-27T10:44:43.494Z,8.27
2023-01-27T10:49:38.367Z,7.87
2023-01-27T10:54:33.325Z,9.83
2023-01-27T10:59:29.466Z,10.37
2023-01-27T11:04:30.179Z,9.80
2023-01-27T11:09:26.471Z,11.00
2023-01-27T11:14:25.049Z,10.80
2023-01-27T11:19:32.603Z,11.10
2023-01-27T11:24:29.546Z,10.97
2023-01-27T11:29:24.757Z,8.40
2023-01-27T11:34:19.204Z,12.80
2023-01-27T11:39:12.150Z,11.17
2023-01-27T11:44:08.472Z,10.40
2023-01-27T11:49:01.048Z,9.80
2023-01-27T11:53:58.849Z,8.23
2023-01-27T11:58:54.176Z,9.40
2023-01-27T12:03:52.056Z,11.30
2023-01-27T12:08:46.107Z,8.40
2023-01-27T12:13:48.534Z,10.70
2023-01-27T12:18:49.706Z,10.43
2023-01-27T12:23:48.590Z,8.90
2023-01-27T12:28:42.793Z,10.23
2023-01-27T12:33:36.700Z,12.40
2023-01-27T12:38:32.204Z,14.33
2023-01-27T12:43:26.155Z,11.93
2023-01-27T12:48:20.110Z,12.27
2023-01-27T12:53:13.944Z,11.10
2023-01-27T12:58:06.625Z,8.93
2023-01-27T13:03:04.824Z,11.13
2023-01-27T13:07:57.447Z,8.60
2023-01-27T13:12:50.942Z,8.00
2023-01-27T13:17:45.587Z,6.30
2023-01-27T13:22:42.752Z,9.83
2023-01-27T13:27:39.947Z,8.70
2023-01-27T13:32:34.456Z,9.67
2023-01-27T13:37:30.259Z,10.60
2023-01-27T13:42:25.753Z,9.80
2023-01-27T13:47:21.556Z,10.30
2023-01-27T13:52:14.533Z,10.20
2023-01-27T13:57:21.350Z,9.47
2023-01-27T14:02:28.883Z,8.10
2023-01-27T14:07:25.485Z,6.73
2023-01-27T14:12:23.407Z,9.10
2023-01-27T14:17:26.391Z,8.40
2023-01-27T14:22:25.792Z,7.27
2023-01-27T14:27:21.029Z,11.37
2023-01-27T14:32:17.177Z,11.17
2023-01-27T14:37:14.805Z,9.50
2023-01-27T14:42:11.709Z,13.40
2023-01-27T14:47:07.632Z,9.13
2023-01-27T14:52:03.770Z,10.13
2023-01-27T14:57:05.759Z,8.90
2023-01-27T15:02:03.089Z,8.13
2023-01-27T15:06:57.209Z,8.10
2023-01-27T15:11:58.464Z,11.50
2023-01-27T15:17:00.796Z,14.53
2023-01-27T15:22:11.410Z,36.73
2023-01-27T15:27:06.037Z,9.20
2023-01-27T15:32:12.291Z,9.27
2023-01-27T15:37:12.855Z,8.80
2023-01-27T15:42:13.426Z,12.90
2023-01-27T15:47:09.798Z,9.23
2023-01-27T15:52:09.972Z,12.00
2023-01-27T15:57:05.119Z,9.57
2023-01-27T16:02:03.796Z,7.10
2023-01-27T16:07:02.038Z,11.80
2023-01-27T16:11:59.691Z,12.00
2023-01-27T16:17:09.872Z,10.10
2023-01-27T16:22:03.813Z,10.27
2023-01-27T16:26:58.626Z,11.20
2023-01-27T16:31:51.595Z,11.20
2023-01-27T16:36:45.659Z,25.77
2023-01-27T16:41:39.860Z,16.53
2023-01-27T16:46:34.326Z,13.43
2023-01-27T16:51:28.096Z,14.20
2023-01-27T16:56:24.415Z,14.10
2023-01-27T17:01:21.296Z,11.53
2023-01-27T17:06:16.963Z,12.60
2023-01-27T17:11:17.591Z,10.50
2023-01-27T17:16:15.605Z,9.53
2023-01-27T17:21:08.837Z,8.73
2023-01-27T17:26:04.062Z,8.57
2023-01-27T17:31:02.581Z,8.57
2023-01-27T17:35:57.360Z,9.33
2023-01-27T17:40:50.883Z,10.00
2023-01-27T17:45:43.870Z,9.50
2023-01-27T17:50:38.266Z,10.27
2023-01-27T17:55:32.455Z,16.90
2023-01-27T18:00:26.265Z,12.80
2023-01-27T18:05:20.572Z,12.00
2023-01-27T18:10:23.269Z,11.87
2023-01-27T18:15:39.905Z,9.93
2023-01-27T18:20:34.006Z,29.93
2023-01-27T18:25:26.668Z,35.80
2023-01-27T18:30:20.553Z,25.60
2023-01-27T18:35:22.778Z,28.90
2023-01-27T18:40:24.859Z,14.00
2023-01-27T18:45:17.539Z,14.10
2023-01-27T18:50:15.018Z,13.50
2023-01-27T18:55:12.983Z,10.87
2023-01-27T19:00:06.761Z,10.10
2023-01-27T19:04:59.525Z,9.67
2023-01-27T19:09:52.471Z,9.63
2023-01-27T19:14:48.360Z,9.87
2023-01-27T19:19:40.892Z,9.70
2023-01-27T19:24:33.657Z,9.43
2023-01-27T19:29:26.638Z,9.87
2023-01-27T19:34:20.552Z,10.93
2023-01-27T19:39:15.192Z,12.43
2023-01-27T19:44:07.941Z,11.90
2023-01-27T19:49:00.863Z,11.53
2023-01-27T19:53:54.993Z,38.40
2023-01-27T19:58:51.268Z,15.23
2023-01-27T20:03:43.918Z,12.53
2023-01-27T20:08:36.546Z,12.50
2023-01-27T20:13:30.495Z,12.07
2023-01-27T20:18:24.013Z,12.90
2023-01-27T20:23:16.840Z,9.70
2023-01-27T20:28:10.228Z,9.70
2023-01-27T20:33:04.854Z,9.40
2023-01-27T20:37:57.719Z,11.50
2023-01-27T20:42:50.548Z,12.40
2023-01-27T20:47:43.443Z,15.43
2023-01-27T20:52:38.163Z,15.60
2023-01-27T20:57:31.451Z,12.90
2023-01-27T21:02:24.804Z,14.43
2023-01-27T21:07:18.280Z,11.03
2023-01-27T21:12:14.652Z,10.60
2023-01-27T21:17:08.070Z,12.47
2023-01-27T21:22:01.138Z,16.00
2023-01-27T21:26:54.397Z,16.07
2023-01-27T21:31:51.410Z,13.00
2023-01-27T21:36:45.801Z,13.97
2023-01-27T21:42:16.182Z,15.87
2023-01-27T21:47:12.021Z,14.77
2023-01-27T21:52:06.784Z,13.67
2023-01-27T21:57:01.584Z,13.40
2023-01-27T22:01:55.289Z,14.27
2023-01-27T22:06:49.183Z,15.23
2023-01-27T22:11:41.875Z,14.77
2023-01-27T22:16:34.550Z,14.43
2023-01-27T22:21:27.259Z,12.13
2023-01-27T22:26:21.271Z,15.53
2023-01-27T22:31:13.914Z,15.50
2023-01-27T22:36:07.211Z,9.00
2023-01-27T22:40:59.877Z,9.30
2023-01-27T22:45:53.953Z,10.13
2023-01-27T22:50:46.577Z,12.47
2023-01-27T22:55:39.110Z,14.10
2023-01-27T23:00:31.715Z,14.13
2023-01-27T23:05:25.664Z,14.23
2023-01-27T23:10:18.343Z,13.40
2023-01-27T23:15:11.242Z,13.57
2023-01-27T23:20:04.200Z,12.00
2023-01-27T23:24:58.167Z,11.20
2023-01-27T23:29:50.727Z,13.73
2023-01-27T23:34:43.298Z,12.30
2023-01-27T23:39:35.989Z,10.70
2023-01-27T23:44:29.921Z,10.40
2023-01-27T23:49:22.616Z,11.33
2023-01-27T23:54:15.185Z,11.13
2023-01-27T23:59:07.797Z,9.10
